KEPH/EPH METAR and TAF weather

Enter ICAO airport designator
Station Type Date Time Source
KEPH METAR 2019/06/27 04:53 UTC NOAA

KEPH 270453Z AUTO 01010KT 10SM -RA SCT060 SCT075 14/13 A2983 RMK AO2 SLP096 P0016 T01390128


Station Type Date Time Source
KEPH Decoded METAR 2019/06/27 04:53 UTC NOAA

EPHRATA MUNICIPAL AIRPORT, WA, United States (KEPH) 47-18N 119-31W 383M
Jun 27, 2019 - 12:53 AM EDT / 2019.06.27 0453 UTC
Wind: from the N (010 degrees) at 12 MPH (10 KT):0
Visibility: 10 mile(s):0
Sky conditions: partly cloudy
Weather: light rain
Precipitation last hour: 0.16 inches
Temperature: 57.0 F (13.9 C)
Dew Point: 55.0 F (12.8 C)
Relative Humidity: 93%
Pressure (altimeter): 29.83 in. Hg (1010 hPa)
ob: KEPH 270453Z AUTO 01010KT 10SM -RA SCT060 SCT075 14/13 A2983 RMK AO2 SLP096 P0016 T01390128
cycle: 5

Station Type Date Time Source
KEPH TAF UTC NOAA

Error!

Example: see airport list